PWSweather.com
Personal Weather Stations
Station Observations
BC052CD
On, Kemptville, ON K0G 1J0

OnKemptville, ON K0G 1J0

Lat: 45.0173179, Lon: -75.6329355

Elevation: 295

Station Type: National Geographic 265NC

http://kerrentweather.ca

High Low Average
Temperature 23.4°F-4.8°C -10.7°F-23.7°C 9.5°F-12.5°C
Dew Point 6.8°F-14.0°C -21.8°F-29.9°C -6.2°F-21.2°C
Winds Calm Calm Calm Calm Calm Calm
Wind Gusts 0.8 mph1.3 kmh -- --
Humidity 65% 34% 49%
Pressure 30.93 in1047.4 mb 30.43 in1030.5 mb -
Precipitation 0.00 in0.0 mm - -
Hour Temp Dew Point Humidity Winds Wind Gusts Pressure Precip Precip Rate Daily Precip Total
12:00 AM 8.4°F-13.1°C -5.1°F-20.6°C 53% Calm Calm -- 30.80 in1043.0 mb 0.00 in0.0 mm 0.00 in0.0 mm 0.00 in0.0 mm
12:15 AM 7.3°F-13.7°C -6.9°F-21.6°C 51% Calm Calm -- 30.81 in1043.3 mb 0.00 in0.0 mm 0.00 in0.0 mm 0.00 in0.0 mm
12:30 AM 6.1°F-14.4°C -7.3°F-21.8°C 53% Calm Calm -- 30.82 in1043.7 mb 0.00 in0.0 mm 0.00 in0.0 mm 0.00 in0.0 mm
12:45 AM 5.4°F-14.8°C -7.9°F-22.2°C 53% Calm Calm -- 30.82 in1043.7 mb 0.00 in0.0 mm 0.00 in0.0 mm 0.00 in0.0 mm
01:00 AM 4.5°F-15.3°C -8.8°F-22.7°C 53% Calm Calm -- 30.83 in1044.0 mb 0.00 in0.0 mm 0.00 in0.0 mm 0.00 in0.0 mm
01:15 AM 3.0°F-16.1°C -10.1°F-23.4°C 53% Calm Calm -- 30.82 in1043.7 mb 0.00 in0.0 mm 0.00 in0.0 mm 0.00 in0.0 mm
01:30 AM 1.9°F-16.7°C -10.7°F-23.7°C 54% Calm Calm -- 30.84 in1044.4 mb 0.00 in0.0 mm 0.00 in0.0 mm 0.00 in0.0 mm
01:45 AM 0.5°F-17.5°C -12.5°F-24.7°C 53% Calm Calm -- 30.84 in1044.4 mb 0.00 in0.0 mm 0.00 in0.0 mm 0.00 in0.0 mm
02:00 AM -0.6°F-18.1°C -13.1°F-25.1°C 54% Calm Calm -- 30.84 in1044.4 mb 0.00 in0.0 mm 0.00 in0.0 mm 0.00 in0.0 mm
02:15 AM -1.3°F-18.5°C -13.8°F-25.4°C 54% Calm Calm -- 30.85 in1044.7 mb 0.00 in0.0 mm 0.00 in0.0 mm 0.00 in0.0 mm
02:30 AM -2.2°F-19.0°C -14.6°F-25.9°C 54% Calm Calm -- 30.85 in1044.7 mb 0.00 in0.0 mm 0.00 in0.0 mm 0.00 in0.0 mm
02:45 AM -2.6°F-19.2°C -14.6°F-25.9°C 55% Calm Calm -- 30.85 in1044.7 mb 0.00 in0.0 mm 0.00 in0.0 mm 0.00 in0.0 mm
03:00 AM -3.3°F-19.6°C -15.6°F-26.4°C 54% Calm Calm -- 30.86 in1045.0 mb 0.00 in0.0 mm 0.00 in0.0 mm 0.00 in0.0 mm
03:15 AM -4.2°F-20.1°C -16.5°F-26.9°C 54% Calm Calm -- 30.87 in1045.4 mb 0.00 in0.0 mm 0.00 in0.0 mm 0.00 in0.0 mm
03:30 AM -5.3°F-20.7°C -17.5°F-27.5°C 54% Calm Calm -- 30.87 in1045.4 mb 0.00 in0.0 mm 0.00 in0.0 mm 0.00 in0.0 mm
03:45 AM -6.0°F-21.1°C -18.1°F-27.8°C 54% Calm Calm -- 30.88 in1045.7 mb 0.00 in0.0 mm 0.00 in0.0 mm 0.00 in0.0 mm
04:00 AM -6.7°F-21.5°C -18.8°F-28.2°C 54% Calm Calm -- 30.88 in1045.7 mb 0.00 in0.0 mm 0.00 in0.0 mm 0.00 in0.0 mm
04:30 AM -7.8°F-22.1°C -19.8°F-28.8°C 54% Calm Calm -- 30.88 in1045.7 mb 0.00 in0.0 mm 0.00 in0.0 mm 0.00 in0.0 mm
04:45 AM -8.1°F-22.3°C -20.2°F-29.0°C 54% Calm Calm -- 30.88 in1045.7 mb 0.00 in0.0 mm 0.00 in0.0 mm 0.00 in0.0 mm
05:00 AM -8.5°F-22.5°C -20.1°F-28.9°C 55% Calm Calm -- 30.88 in1045.7 mb 0.00 in0.0 mm 0.00 in0.0 mm 0.00 in0.0 mm
05:15 AM -8.5°F-22.5°C -20.1°F-28.9°C 55% Calm Calm -- 30.88 in1045.7 mb 0.00 in0.0 mm 0.00 in0.0 mm 0.00 in0.0 mm
05:30 AM -8.7°F-22.6°C -20.3°F-29.1°C 55% Calm Calm -- 30.89 in1046.1 mb 0.00 in0.0 mm 0.00 in0.0 mm 0.00 in0.0 mm
05:45 AM -8.9°F-22.7°C -20.5°F-29.2°C 55% Calm Calm -- 30.89 in1046.1 mb 0.00 in0.0 mm 0.00 in0.0 mm 0.00 in0.0 mm
06:00 AM -8.9°F-22.7°C -20.1°F-28.9°C 56% Calm Calm -- 30.89 in1046.1 mb 0.00 in0.0 mm 0.00 in0.0 mm 0.00 in0.0 mm
06:15 AM -8.9°F-22.7°C -20.1°F-28.9°C 56% Calm Calm -- 30.89 in1046.1 mb 0.00 in0.0 mm 0.00 in0.0 mm 0.00 in0.0 mm
06:30 AM -8.9°F-22.7°C -20.1°F-28.9°C 56% Calm Calm -- 30.89 in1046.1 mb 0.00 in0.0 mm 0.00 in0.0 mm 0.00 in0.0 mm
06:45 AM -9.0°F-22.8°C -20.3°F-29.1°C 56% Calm Calm -- 30.90 in1046.4 mb 0.00 in0.0 mm 0.00 in0.0 mm 0.00 in0.0 mm
07:00 AM -9.2°F-22.9°C -20.5°F-29.2°C 56% Calm Calm -- 30.90 in1046.4 mb 0.00 in0.0 mm 0.00 in0.0 mm 0.00 in0.0 mm
07:15 AM -9.6°F-23.1°C -20.8°F-29.3°C 56% Calm Calm -- 30.90 in1046.4 mb 0.00 in0.0 mm 0.00 in0.0 mm 0.00 in0.0 mm
07:30 AM -9.9°F-23.3°C -21.1°F-29.5°C 56% Calm Calm -- 30.90 in1046.4 mb 0.00 in0.0 mm 0.00 in0.0 mm 0.00 in0.0 mm
07:45 AM -10.3°F-23.5°C -21.5°F-29.7°C 56% Calm Calm -- 30.90 in1046.4 mb 0.00 in0.0 mm 0.00 in0.0 mm 0.00 in0.0 mm
08:00 AM -10.5°F-23.6°C -21.6°F-29.8°C 56% Calm Calm -- 30.91 in1046.7 mb 0.00 in0.0 mm 0.00 in0.0 mm 0.00 in0.0 mm
08:15 AM -10.5°F-23.6°C -21.6°F-29.8°C 56% Calm Calm -- 30.91 in1046.7 mb 0.00 in0.0 mm 0.00 in0.0 mm 0.00 in0.0 mm
08:30 AM -10.7°F-23.7°C -21.8°F-29.9°C 56% Calm Calm -- 30.92 in1047.1 mb 0.00 in0.0 mm 0.00 in0.0 mm 0.00 in0.0 mm
08:45 AM -10.7°F-23.7°C -21.8°F-29.9°C 56% Calm Calm -- 30.93 in1047.4 mb 0.00 in0.0 mm 0.00 in0.0 mm 0.00 in0.0 mm
09:00 AM -9.8°F-23.2°C -20.6°F-29.2°C 57% Calm Calm -- 30.93 in1047.4 mb 0.00 in0.0 mm 0.00 in0.0 mm 0.00 in0.0 mm
09:15 AM -7.4°F-21.9°C -17.8°F-27.7°C 59% Calm Calm -- 30.93 in1047.4 mb 0.00 in0.0 mm 0.00 in0.0 mm 0.00 in0.0 mm
09:30 AM -4.2°F-20.1°C -14.4°F-25.8°C 60% Calm Calm -- 30.93 in1047.4 mb 0.00 in0.0 mm 0.00 in0.0 mm 0.00 in0.0 mm
09:45 AM -0.8°F-18.2°C -10.5°F-23.6°C 62% Calm Calm -- 30.93 in1047.4 mb 0.00 in0.0 mm 0.00 in0.0 mm 0.00 in0.0 mm
10:00 AM 4.3°F-15.4°C -5.1°F-20.6°C 64% Calm Calm -- 30.93 in1047.4 mb 0.00 in0.0 mm 0.00 in0.0 mm 0.00 in0.0 mm
10:15 AM 7.3°F-13.7°C -2.2°F-19.0°C 64% Calm Calm -- 30.93 in1047.4 mb 0.00 in0.0 mm 0.00 in0.0 mm 0.00 in0.0 mm
10:30 AM 9.9°F-12.3°C 0.2°F-17.7°C 64% Calm Calm -- 30.93 in1047.4 mb 0.00 in0.0 mm 0.00 in0.0 mm 0.00 in0.0 mm
10:45 AM 12.2°F-11.0°C 2.8°F-16.2°C 65% Calm Calm -- 30.93 in1047.4 mb 0.00 in0.0 mm 0.00 in0.0 mm 0.00 in0.0 mm
11:00 AM 14.5°F-9.7°C 4.7°F-15.2°C 64% Calm Calm -- 30.92 in1047.1 mb 0.00 in0.0 mm 0.00 in0.0 mm 0.00 in0.0 mm
11:15 AM 16.9°F-8.4°C 6.2°F-14.3°C 62% Calm Calm -- 30.91 in1046.7 mb 0.00 in0.0 mm 0.00 in0.0 mm 0.00 in0.0 mm
11:30 AM 18.5°F-7.5°C 6.6°F-14.1°C 59% Calm Calm -- 30.91 in1046.7 mb 0.00 in0.0 mm 0.00 in0.0 mm 0.00 in0.0 mm
11:45 AM 19.9°F-6.7°C 6.8°F-14.0°C 56% Calm Calm -- 30.90 in1046.4 mb 0.00 in0.0 mm 0.00 in0.0 mm 0.00 in0.0 mm
12:00 PM 20.8°F-6.2°C 6.5°F-14.2°C 53% Calm Calm -- 30.90 in1046.4 mb 0.00 in0.0 mm 0.00 in0.0 mm 0.00 in0.0 mm
12:15 PM 21.9°F-5.6°C 5.7°F-14.6°C 49% Calm Calm -- 30.89 in1046.1 mb 0.00 in0.0 mm 0.00 in0.0 mm 0.00 in0.0 mm
12:30 PM 21.9°F-5.6°C 4.4°F-15.3°C 46% Calm Calm -- 30.89 in1046.1 mb 0.00 in0.0 mm 0.00 in0.0 mm 0.00 in0.0 mm
12:45 PM 22.6°F-5.2°C 5.0°F-15.0°C 46% Calm Calm -- 30.87 in1045.4 mb 0.00 in0.0 mm 0.00 in0.0 mm 0.00 in0.0 mm
01:00 PM 23.2°F-4.9°C 4.6°F-15.2°C 44% Calm Calm -- 30.86 in1045.0 mb 0.00 in0.0 mm 0.00 in0.0 mm 0.00 in0.0 mm
01:30 PM 23.4°F-4.8°C 2.7°F-16.3°C 40% Calm Calm -- 30.85 in1044.7 mb 0.00 in0.0 mm 0.00 in0.0 mm 0.00 in0.0 mm
01:45 PM 23.2°F-4.9°C 2.5°F-16.4°C 40% Calm Calm -- 30.83 in1044.0 mb 0.00 in0.0 mm 0.00 in0.0 mm 0.00 in0.0 mm
02:00 PM 23.2°F-4.9°C 2.0°F-16.7°C 39% Calm Calm -- 30.82 in1043.7 mb 0.00 in0.0 mm 0.00 in0.0 mm 0.00 in0.0 mm
02:15 PM 22.6°F-5.2°C 0.9°F-17.3°C 38% Calm Calm -- 30.82 in1043.7 mb 0.00 in0.0 mm 0.00 in0.0 mm 0.00 in0.0 mm
02:30 PM 21.9°F-5.6°C 0.3°F-17.6°C 38% Calm Calm -- 30.81 in1043.3 mb 0.00 in0.0 mm 0.00 in0.0 mm 0.00 in0.0 mm
02:45 PM 21.7°F-5.7°C -0.5°F-18.1°C 37% Calm Calm -- 30.80 in1043.0 mb 0.00 in0.0 mm 0.00 in0.0 mm 0.00 in0.0 mm
03:00 PM 21.7°F-5.7°C 0.1°F-17.7°C 38% Calm Calm -- 30.78 in1042.3 mb 0.00 in0.0 mm 0.00 in0.0 mm 0.00 in0.0 mm
03:15 PM 22.1°F-5.5°C -0.1°F-17.8°C 37% Calm Calm -- 30.79 in1042.7 mb 0.00 in0.0 mm 0.00 in0.0 mm 0.00 in0.0 mm
03:30 PM 22.3°F-5.4°C -0.6°F-18.1°C 36% Calm Calm -- 30.78 in1042.3 mb 0.00 in0.0 mm 0.00 in0.0 mm 0.00 in0.0 mm
03:45 PM 22.6°F-5.2°C 0.4°F-17.6°C 37% Calm Calm -- 30.77 in1042.0 mb 0.00 in0.0 mm 0.00 in0.0 mm 0.00 in0.0 mm
04:00 PM 23.0°F-5.0°C 0.7°F-17.4°C 37% Calm Calm -- 30.77 in1042.0 mb 0.00 in0.0 mm 0.00 in0.0 mm 0.00 in0.0 mm
04:15 PM 23.2°F-4.9°C 0.8°F-17.3°C 37% Calm Calm -- 30.76 in1041.7 mb 0.00 in0.0 mm 0.00 in0.0 mm 0.00 in0.0 mm
04:30 PM 23.2°F-4.9°C 0.3°F-17.6°C 36% Calm Calm -- 30.76 in1041.7 mb 0.00 in0.0 mm 0.00 in0.0 mm 0.00 in0.0 mm
04:45 PM 23.4°F-4.8°C -0.2°F-17.9°C 35% Calm Calm -- 30.75 in1041.3 mb 0.00 in0.0 mm 0.00 in0.0 mm 0.00 in0.0 mm
05:00 PM 23.0°F-5.0°C -0.5°F-18.1°C 35% Calm Calm -- 30.75 in1041.3 mb 0.00 in0.0 mm 0.00 in0.0 mm 0.00 in0.0 mm
05:15 PM 22.5°F-5.3°C -1.6°F-18.7°C 34% Calm Calm -- 30.74 in1041.0 mb 0.00 in0.0 mm 0.00 in0.0 mm 0.00 in0.0 mm
05:30 PM 22.3°F-5.4°C -1.1°F-18.4°C 35% Calm Calm -- 30.73 in1040.6 mb 0.00 in0.0 mm 0.00 in0.0 mm 0.00 in0.0 mm
05:45 PM 22.1°F-5.5°C -0.7°F-18.2°C 36% Calm Calm -- 30.71 in1040.0 mb 0.00 in0.0 mm 0.00 in0.0 mm 0.00 in0.0 mm
06:00 PM 21.9°F-5.6°C -0.9°F-18.3°C 36% Calm Calm -- 30.69 in1039.3 mb 0.00 in0.0 mm 0.00 in0.0 mm 0.00 in0.0 mm
06:15 PM 21.6°F-5.8°C -0.6°F-18.1°C 37% Calm Calm -- 30.69 in1039.3 mb 0.00 in0.0 mm 0.00 in0.0 mm 0.00 in0.0 mm
06:30 PM 21.0°F-6.1°C -1.1°F-18.4°C 37% Calm Calm -- 30.68 in1038.9 mb 0.00 in0.0 mm 0.00 in0.0 mm 0.00 in0.0 mm
06:45 PM 20.5°F-6.4°C -1.0°F-18.3°C 38% Calm Calm -- 30.68 in1038.9 mb 0.00 in0.0 mm 0.00 in0.0 mm 0.00 in0.0 mm
07:00 PM 19.8°F-6.8°C -1.7°F-18.7°C 38% Calm Calm -- 30.67 in1038.6 mb 0.00 in0.0 mm 0.00 in0.0 mm 0.00 in0.0 mm
07:15 PM 19.0°F-7.2°C -1.8°F-18.8°C 39% Calm Calm -- 30.66 in1038.3 mb 0.00 in0.0 mm 0.00 in0.0 mm 0.00 in0.0 mm
07:30 PM 18.9°F-7.3°C -1.9°F-18.8°C 39% Calm Calm -- 30.64 in1037.6 mb 0.00 in0.0 mm 0.00 in0.0 mm 0.00 in0.0 mm
07:45 PM 18.9°F-7.3°C -1.4°F-18.6°C 40% Calm Calm -- 30.64 in1037.6 mb 0.00 in0.0 mm 0.00 in0.0 mm 0.00 in0.0 mm
08:00 PM 18.5°F-7.5°C -1.7°F-18.7°C 40% Calm Calm -- 30.64 in1037.6 mb 0.00 in0.0 mm 0.00 in0.0 mm 0.00 in0.0 mm
08:15 PM 18.0°F-7.8°C -1.7°F-18.7°C 41% Calm Calm -- 30.61 in1036.6 mb 0.00 in0.0 mm 0.00 in0.0 mm 0.00 in0.0 mm
08:30 PM 17.4°F-8.1°C -2.2°F-19.0°C 41% Calm Calm -- 30.60 in1036.2 mb 0.00 in0.0 mm 0.00 in0.0 mm 0.00 in0.0 mm
08:45 PM 17.1°F-8.3°C -2.0°F-18.9°C 42% Calm Calm -- 30.59 in1035.9 mb 0.00 in0.0 mm 0.00 in0.0 mm 0.00 in0.0 mm
09:00 PM 16.5°F-8.6°C -1.5°F-18.6°C 44% Calm Calm -- 30.58 in1035.6 mb 0.00 in0.0 mm 0.00 in0.0 mm 0.00 in0.0 mm
09:15 PM 15.8°F-9.0°C -1.7°F-18.7°C 45% Calm Calm -- 30.59 in1035.9 mb 0.00 in0.0 mm 0.00 in0.0 mm 0.00 in0.0 mm
09:30 PM 15.4°F-9.2°C -1.6°F-18.7°C 46% Calm Calm -- 30.59 in1035.9 mb 0.00 in0.0 mm 0.00 in0.0 mm 0.00 in0.0 mm
09:45 PM 15.6°F-9.1°C -0.9°F-18.3°C 47% Calm Calm -- 30.58 in1035.6 mb 0.00 in0.0 mm 0.00 in0.0 mm 0.00 in0.0 mm
10:00 PM 16.2°F-8.8°C -0.4°F-18.0°C 47% Calm Calm -- 30.56 in1034.9 mb 0.00 in0.0 mm 0.00 in0.0 mm 0.00 in0.0 mm
10:15 PM 16.3°F-8.7°C 0.2°F-17.7°C 48% Calm Calm -- 30.56 in1034.9 mb 0.00 in0.0 mm 0.00 in0.0 mm 0.00 in0.0 mm
10:30 PM 16.3°F-8.7°C 0.2°F-17.7°C 48% Calm Calm -- 30.55 in1034.5 mb 0.00 in0.0 mm 0.00 in0.0 mm 0.00 in0.0 mm
10:45 PM 16.2°F-8.8°C 0.0°F-17.8°C 48% Calm Calm -- 30.54 in1034.2 mb 0.00 in0.0 mm 0.00 in0.0 mm 0.00 in0.0 mm
11:00 PM 16.0°F-8.9°C 0.3°F-17.6°C 49% Calm Calm -- 30.53 in1033.9 mb 0.00 in0.0 mm 0.00 in0.0 mm 0.00 in0.0 mm
11:15 PM 15.6°F-9.1°C -0.1°F-17.8°C 49% Calm Calm -- 30.51 in1033.2 mb 0.00 in0.0 mm 0.00 in0.0 mm 0.00 in0.0 mm
11:30 PM 15.6°F-9.1°C 0.4°F-17.6°C 50% Calm Calm 0.8 mph1.3 kmh 30.48 in1032.2 mb 0.00 in0.0 mm 0.00 in0.0 mm 0.00 in0.0 mm
11:45 PM 15.6°F-9.1°C 0.4°F-17.6°C 50% Calm Calm -- 30.47 in1031.8 mb 0.00 in0.0 mm 0.00 in0.0 mm 0.00 in0.0 mm